Terminal Aerodrome Forecast
Issued by NWS Albany, NY

Home | Current Version | Previous Version | Text Only | Print | Product List | Glossary On
Versions: 1 2 3 4 5 6 7 8 9 10 11 12 13 14 15 16 17 18 19 20 21 22 23 24 25 26
123
FTUS41 KALY 231738
TAFALB
TAF
KALB 231738Z 2318/2418 08010G20KT P6SM BKN025 OVC030
     FM240000 01014G19KT 3SM -SN BR BKN015 OVC020
     FM240400 01015G23KT 1SM -FZRASNPL BR VV009 WS020/07040KT
     FM241300 35010KT 3SM -RASN BR BKN020 OVC030=

USA.gov is the U.S. government's official web portal to all federal, state and local government web resources and services.